Time;durP1;ratioP1;P1;durP2;ratioP2;P2;SDS_P1;SDS_P2;PMS_P1;PMS_P2;Temp;Humidity;BMP_temperature;BMP_pressure;BME280_temperature;BME280_humidity;BME280_pressure;Samples;Min_cycle;Max_cycle;Signal;HPM_P1;HPM_P2
2022/02/12 00:02:15;;;;;;;14.23;4.70;;;-1.00;99.90;;;;;;4972090;28;20259;-73
2022/02/12 00:04:41;;;;;;;9.33;3.03;;;-1.10;99.90;;;;;;4972069;28;20223;-75
2022/02/12 00:07:07;;;;;;;8.07;2.37;;;-1.10;99.90;;;;;;4972899;28;20234;-73
2022/02/12 00:09:32;;;;;;;3.03;2.80;;;-1.10;99.90;;;;;;4972722;28;20700;-74
2022/02/12 00:11:58;;;;;;;10.20;3.77;;;-1.10;99.90;;;;;;4972529;28;20232;-73
2022/02/12 00:14:23;;;;;;;10.90;2.90;;;-1.10;99.90;;;;;;4972469;28;20190;-73
2022/02/12 00:16:49;;;;;;;8.73;3.00;;;-1.20;99.90;;;;;;4972584;28;20223;-72
2022/02/12 00:19:15;;;;;;;5.43;3.50;;;-1.10;99.90;;;;;;4972338;28;20231;-73
2022/02/12 00:21:40;;;;;;;9.40;4.10;;;-1.20;99.90;;;;;;4972402;28;20304;-74
2022/02/12 00:24:06;;;;;;;6.33;3.20;;;-1.20;99.90;;;;;;4972520;28;20212;-74
2022/02/12 00:26:32;;;;;;;9.63;3.50;;;-1.30;99.90;;;;;;4972777;28;20286;-73
2022/02/12 00:28:57;;;;;;;13.80;3.87;;;-1.30;99.90;;;;;;4973212;28;20199;-74
2022/02/12 00:31:23;;;;;;;8.03;3.63;;;-1.30;99.90;;;;;;4971972;28;20254;-74
2022/02/12 00:33:48;;;;;;;9.03;3.03;;;-1.30;99.90;;;;;;4972416;28;20219;-72
2022/02/12 00:36:14;;;;;;;16.37;3.70;;;-1.30;99.90;;;;;;4972430;28;20620;-73
2022/02/12 00:38:39;;;;;;;5.83;2.90;;;-1.30;99.90;;;;;;4972594;28;20195;-74
2022/02/12 00:41:05;;;;;;;4.50;3.37;;;-1.30;99.90;;;;;;4972159;28;20208;-73
2022/02/12 00:43:31;;;;;;;5.87;3.77;;;-1.30;99.90;;;;;;4972397;28;20653;-73
2022/02/12 00:45:57;;;;;;;4.83;3.43;;;-1.30;99.90;;;;;;4972804;28;20177;-73
2022/02/12 00:48:22;;;;;;;9.33;4.50;;;-1.30;99.90;;;;;;4972232;28;20422;-73
2022/02/12 00:50:48;;;;;;;11.13;4.53;;;-1.30;99.90;;;;;;4972173;28;20181;-75
2022/02/12 00:53:13;;;;;;;9.60;5.03;;;-1.40;99.90;;;;;;4971905;28;20654;-72
2022/02/12 00:55:39;;;;;;;8.23;5.47;;;-1.30;99.90;;;;;;4972389;28;20187;-73
2022/02/12 00:58:05;;;;;;;12.00;4.63;;;-1.40;99.90;;;;;;4972231;28;20180;-73
2022/02/12 05:33:02;;;;;;;105.13;16.70;;;-1.90;99.90;;;;;;4911942;29;21023;-70
2022/02/12 05:35:28;;;;;;;128.63;18.20;;;-2.00;99.90;;;;;;4916398;29;20455;-71
2022/02/12 05:37:53;;;;;;;79.70;18.40;;;-2.00;99.90;;;;;;4917694;29;20192;-70
2022/02/12 05:40:19;;;;;;;78.57;18.47;;;-2.00;99.90;;;;;;4916741;29;20221;-72
2022/02/12 05:42:44;;;;;;;71.30;16.87;;;-1.90;99.90;;;;;;4908485;29;20210;-70
2022/02/12 05:45:10;;;;;;;117.43;18.13;;;-1.80;99.90;;;;;;4917275;29;20253;-70
2022/02/12 05:47:42;;;;;;;106.53;18.47;;;-1.70;99.90;;;;;;4900565;29;20182;-70
2022/02/12 05:50:09;;;;;;;107.00;17.60;;;-1.70;99.90;;;;;;4917305;29;20253;-70
2022/02/12 05:52:35;;;;;;;45.40;15.17;;;-1.70;99.90;;;;;;4916497;29;20442;-70
2022/02/12 05:55:01;;;;;;;50.90;17.07;;;-1.70;99.90;;;;;;4916914;29;20404;-72
2022/02/12 05:57:27;;;;;;;78.30;18.67;;;-1.60;99.90;;;;;;4917312;29;20914;-72
2022/02/12 05:59:52;;;;;;;85.87;16.93;;;-1.60;99.90;;;;;;4917112;29;20192;-71
2022/02/12 06:02:18;;;;;;;98.93;17.77;;;-1.60;99.90;;;;;;4916574;29;20200;-71
2022/02/12 06:04:43;;;;;;;48.43;17.10;;;-1.60;99.90;;;;;;4916846;29;20210;-71
2022/02/12 06:07:10;;;;;;;120.60;18.40;;;-1.60;99.90;;;;;;4916929;29;20189;-71
2022/02/12 06:09:36;;;;;;;86.80;16.73;;;-1.60;99.90;;;;;;4917024;29;20533;-71
2022/02/12 06:12:02;;;;;;;105.27;17.83;;;-1.70;99.90;;;;;;4916701;29;20445;-70
2022/02/12 06:14:28;;;;;;;111.90;18.47;;;-1.60;99.90;;;;;;4916665;29;20426;-71
2022/02/12 06:16:56;;;;;;;54.23;13.87;;;-1.60;99.90;;;;;;4916802;29;20414;-70
2022/02/12 06:19:21;;;;;;;122.77;16.37;;;-1.50;99.90;;;;;;4917110;29;20178;-71
2022/02/12 06:21:47;;;;;;;109.53;17.87;;;-1.50;99.90;;;;;;4916733;29;20446;-70
2022/02/12 06:24:13;;;;;;;154.00;18.10;;;-1.50;99.90;;;;;;4916814;29;20220;-72
2022/02/12 06:26:43;;;;;;;66.23;16.00;;;-1.50;99.90;;;;;;4917049;29;20711;-70
2022/02/12 06:29:09;;;;;;;125.00;17.87;;;-1.50;99.90;;;;;;4916848;29;20417;-70
2022/02/12 06:31:35;;;;;;;102.90;15.70;;;-1.60;99.90;;;;;;4899524;29;20484;-70
2022/02/12 06:34:00;;;;;;;89.70;14.63;;;-1.50;99.90;;;;;;4916740;29;20410;-71
2022/02/12 06:36:26;;;;;;;48.43;13.20;;;-1.60;99.90;;;;;;4916752;29;20191;-71
2022/02/12 06:38:51;;;;;;;127.57;15.77;;;-1.60;99.90;;;;;;4923916;29;20269;-72
2022/02/12 06:41:17;;;;;;;155.13;18.33;;;-1.60;99.90;;;;;;4932421;29;20240;-71
2022/02/12 06:43:42;;;;;;;41.07;14.37;;;-1.60;99.90;;;;;;4928373;29;20189;-71
2022/02/12 06:46:09;;;;;;;37.70;13.80;;;-1.60;99.90;;;;;;4916319;29;20189;-71
2022/02/12 06:48:36;;;;;;;45.13;13.93;;;-1.50;99.90;;;;;;4916358;29;20176;-72
2022/02/12 06:51:02;;;;;;;42.87;14.80;;;-1.50;99.90;;;;;;4916049;29;20442;-71
2022/02/12 06:53:27;;;;;;;55.60;16.47;;;-1.40;99.90;;;;;;4916190;29;20426;-68
2022/02/12 06:55:53;;;;;;;75.93;16.33;;;-1.50;99.90;;;;;;4898537;29;20420;-68
2022/02/12 06:58:19;;;;;;;42.43;14.10;;;-1.60;99.90;;;;;;4915245;29;20186;-69
2022/02/12 07:00:45;;;;;;;58.83;14.30;;;-1.50;99.90;;;;;;4915186;29;20192;-69
2022/02/12 07:03:10;;;;;;;41.80;13.53;;;-1.50;99.90;;;;;;4914946;29;20670;-70
2022/02/12 07:05:36;;;;;;;49.30;14.07;;;-1.40;99.90;;;;;;4914294;29;20206;-68
2022/02/12 07:08:02;;;;;;;36.83;13.40;;;-1.40;99.90;;;;;;4914948;29;20529;-70
2022/02/12 07:10:29;;;;;;;29.20;12.63;;;-1.40;99.90;;;;;;4914732;29;20169;-67
2022/02/12 07:12:54;;;;;;;36.00;12.73;;;-1.40;99.90;;;;;;4913953;29;20491;-70
2022/02/12 07:15:20;;;;;;;65.83;12.77;;;-1.30;99.90;;;;;;4913153;29;20409;-69
2022/02/12 07:17:46;;;;;;;40.57;12.40;;;-1.40;99.90;;;;;;4914876;29;20184;-68
2022/02/12 07:20:12;;;;;;;33.07;11.13;;;-1.50;99.90;;;;;;4914434;29;20192;-69
2022/02/12 07:22:40;;;;;;;57.23;11.97;;;-1.50;99.90;;;;;;4914768;29;20690;-69
2022/02/12 07:25:07;;;;;;;120.33;14.37;;;-1.50;99.90;;;;;;4911606;29;20508;-67
2022/02/12 07:27:32;;;;;;;19.47;11.97;;;-1.50;99.90;;;;;;4913856;29;20458;-69
2022/02/12 07:29:58;;;;;;;29.37;12.67;;;-1.50;99.90;;;;;;4918021;29;20976;-69
2022/02/12 07:32:24;;;;;;;29.03;13.70;;;-1.40;99.90;;;;;;4922436;29;20577;-68
2022/02/12 07:34:49;;;;;;;30.97;13.00;;;-1.30;99.90;;;;;;4919853;29;20222;-69
2022/02/12 07:37:15;;;;;;;37.63;12.27;;;-1.20;99.90;;;;;;4914643;29;20218;-69
2022/02/12 07:39:40;;;;;;;26.43;11.63;;;-1.20;99.90;;;;;;4917599;29;20682;-69
2022/02/12 07:42:06;;;;;;;23.03;12.60;;;-1.10;99.90;;;;;;4914499;29;20284;-68
2022/02/12 07:44:31;;;;;;;29.27;12.47;;;-1.10;99.90;;;;;;4913678;29;20265;-70
2022/02/12 07:46:57;;;;;;;24.00;11.83;;;-1.00;99.90;;;;;;4916536;29;20202;-69
2022/02/12 07:49:22;;;;;;;22.23;12.60;;;-1.00;99.90;;;;;;4913919;29;20232;-70
2022/02/12 07:51:48;;;;;;;20.73;11.13;;;-0.90;99.90;;;;;;4913961;29;20202;-70
2022/02/12 07:54:13;;;;;;;25.63;11.37;;;-0.70;99.90;;;;;;4913653;29;20260;-69
2022/02/12 07:56:39;;;;;;;48.00;14.73;;;-0.70;99.90;;;;;;4913933;29;20637;-69
2022/02/12 07:59:05;;;;;;;28.73;12.10;;;-0.70;99.90;;;;;;4920501;29;20767;-69
2022/02/12 08:01:31;;;;;;;20.70;13.43;;;-1.00;99.90;;;;;;4932773;29;20232;-69
2022/02/12 08:03:59;;;;;;;23.73;13.17;;;-0.90;99.90;;;;;;4932540;29;20311;-70
2022/02/12 08:09:10;;;;;;;34.33;12.77;;;-0.30;99.90;;;;;;4932637;29;20521;-70
2022/02/12 08:11:42;;;;;;;29.77;11.13;;;0.70;99.90;;;;;;4915936;29;20646;-69
2022/02/12 08:14:07;;;;;;;18.77;10.70;;;1.50;99.90;;;;;;4913324;29;20230;-68
2022/02/12 08:16:33;;;;;;;24.70;11.57;;;2.20;99.90;;;;;;4915237;29;20439;-70
2022/02/12 08:18:58;;;;;;;16.80;10.93;;;2.90;99.90;;;;;;4917769;29;20218;-70
2022/02/12 08:21:24;;;;;;;19.47;10.93;;;3.60;99.90;;;;;;4917382;29;20203;-70
2022/02/12 08:23:50;;;;;;;18.47;11.17;;;3.80;99.90;;;;;;4917350;29;20219;-70
2022/02/12 08:26:15;;;;;;;22.57;11.97;;;3.90;99.90;;;;;;4917498;29;20198;-70
2022/02/12 08:28:41;;;;;;;17.43;10.40;;;3.70;99.90;;;;;;4917567;29;20215;-70
2022/02/12 08:31:07;;;;;;;19.93;11.17;;;3.90;99.90;;;;;;4917073;29;20290;-70
2022/02/12 08:33:36;;;;;;;17.70;11.10;;;4.00;99.90;;;;;;4917365;29;20463;-70
2022/02/12 08:36:01;;;;;;;21.47;12.40;;;4.00;99.90;;;;;;4917350;29;20199;-70
2022/02/12 08:38:27;;;;;;;17.37;11.60;;;4.10;99.90;;;;;;4917503;29;20439;-71
2022/02/12 08:40:52;;;;;;;15.90;11.40;;;3.90;99.90;;;;;;4917300;29;20296;-70
2022/02/12 08:43:18;;;;;;;17.27;10.97;;;3.90;99.90;;;;;;4917783;29;20263;-71
2022/02/12 08:45:44;;;;;;;18.30;11.23;;;3.90;99.90;;;;;;4918291;29;20684;-71
2022/02/12 08:48:09;;;;;;;20.53;12.37;;;3.70;99.90;;;;;;4917809;29;20444;-70
2022/02/12 08:50:36;;;;;;;17.00;12.00;;;3.60;99.90;;;;;;4918001;29;20569;-71
2022/02/12 08:53:02;;;;;;;20.67;11.70;;;3.90;99.90;;;;;;4927667;29;20207;-70
2022/02/12 08:55:28;;;;;;;18.60;12.30;;;4.10;99.90;;;;;;4924472;29;21006;-70
2022/02/12 08:57:54;;;;;;;27.73;13.43;;;4.30;99.90;;;;;;4914087;29;20215;-71
2022/02/12 09:00:20;;;;;;;19.17;11.97;;;4.50;99.90;;;;;;4917493;29;20582;-71
2022/02/12 09:02:46;;;;;;;21.03;11.70;;;4.50;99.90;;;;;;4917629;29;20466;-70
2022/02/12 09:05:11;;;;;;;16.93;11.97;;;4.50;99.90;;;;;;4917517;29;20482;-70
2022/02/12 09:07:37;;;;;;;17.23;10.83;;;4.50;99.90;;;;;;4917808;29;20205;-69
2022/02/12 09:10:03;;;;;;;19.23;11.97;;;4.70;99.90;;;;;;4917253;29;20298;-70
2022/02/12 09:12:29;;;;;;;16.20;11.03;;;4.80;99.90;;;;;;4917377;29;20201;-71
2022/02/12 09:14:55;;;;;;;19.47;12.17;;;5.20;99.90;;;;;;4917439;29;20313;-72
2022/02/12 09:17:20;;;;;;;21.53;9.37;;;5.40;99.90;;;;;;4917320;29;20969;-70
2022/02/12 09:19:47;;;;;;;16.80;10.97;;;5.60;99.90;;;;;;4917533;29;20222;-71
2022/02/12 09:22:12;;;;;;;17.30;9.50;;;6.10;99.90;;;;;;4917135;29;20236;-72
2022/02/12 09:24:38;;;;;;;17.80;10.27;;;6.30;99.90;;;;;;4917035;29;20475;-73
2022/02/12 09:27:04;;;;;;;14.00;10.03;;;6.60;99.90;;;;;;4900130;29;20199;-72
2022/02/12 09:29:30;;;;;;;17.90;9.07;;;6.80;99.90;;;;;;4922726;29;20239;-72
2022/02/12 09:31:55;;;;;;;14.33;7.93;;;6.60;99.90;;;;;;4924577;29;20426;-72
2022/02/12 09:34:21;;;;;;;13.40;8.90;;;6.90;99.90;;;;;;4926187;29;20473;-72
2022/02/12 09:36:46;;;;;;;18.80;9.27;;;7.00;99.90;;;;;;4926018;29;20207;-71
2022/02/12 09:39:12;;;;;;;13.07;7.37;;;6.80;99.90;;;;;;4924879;29;20257;-70
2022/02/12 09:41:38;;;;;;;15.83;8.23;;;7.00;99.90;;;;;;4931131;29;21687;-71
2022/02/12 09:44:04;;;;;;;17.67;7.30;;;7.00;99.90;;;;;;4918916;29;20519;-71
2022/02/12 09:46:49;;;;;;;15.73;8.13;;;7.10;99.90;;;;;;4924495;29;20188;-72
2022/02/12 09:49:15;;;;;;;18.47;8.80;;;7.30;99.90;;;;;;4925405;29;21006;-71
2022/02/12 09:51:41;;;;;;;16.33;8.57;;;7.20;99.90;;;;;;4936663;29;20478;-72
2022/02/12 09:54:06;;;;;;;15.07;8.27;;;7.30;99.90;;;;;;4935185;29;20450;-71
2022/02/12 09:56:34;;;;;;;16.03;8.93;;;7.60;99.90;;;;;;4934050;29;20861;-72
2022/02/12 09:59:00;;;;;;;12.87;8.00;;;8.00;99.90;;;;;;4935463;29;20668;-71
2022/02/12 10:01:25;;;;;;;15.63;7.87;;;8.10;99.90;;;;;;4935881;29;20477;-72
2022/02/12 10:03:52;;;;;;;20.17;9.00;;;8.00;99.90;;;;;;4935900;29;20677;-72
2022/02/12 10:06:41;;;;;;;11.03;7.67;;;8.10;99.90;;;;;;4935771;29;20171;-71
2022/02/12 10:09:07;;;;;;;16.53;8.50;;;8.00;99.90;;;;;;4935699;29;20944;-70
2022/02/12 10:11:50;;;;;;;14.80;7.67;;;8.20;99.90;;;;;;4923979;29;20481;-72
2022/02/12 10:14:23;;;;;;;15.77;8.83;;;8.00;99.90;;;;;;4915395;29;20421;-72
2022/02/12 10:16:54;;;;;;;17.40;8.00;;;8.40;99.90;;;;;;4916603;29;20837;-72
2022/02/12 10:19:31;;;;;;;16.07;8.30;;;8.50;99.90;;;;;;4915828;29;20441;-72
2022/02/12 10:22:04;;;;;;;19.00;9.23;;;8.70;99.90;;;;;;4916644;29;20438;-73
2022/02/12 10:24:45;;;;;;;12.03;7.97;;;8.90;99.90;;;;;;4915861;29;20470;-72
2022/02/12 10:27:11;;;;;;;16.90;8.60;;;8.90;99.90;;;;;;4918128;29;20485;-72
2022/02/12 10:29:36;;;;;;;13.53;7.80;;;8.90;99.90;;;;;;4915344;29;20525;-72
2022/02/12 10:32:02;;;;;;;18.73;8.70;;;9.20;99.90;;;;;;4916259;29;20595;-72
2022/02/12 10:34:43;;;;;;;14.70;8.50;;;9.10;99.90;;;;;;4915000;29;20186;-72
2022/02/12 10:37:18;;;;;;;10.77;7.83;;;9.30;99.90;;;;;;4916083;29;20183;-72
2022/02/12 10:40:01;;;;;;;14.97;8.43;;;9.20;99.90;;;;;;4915842;29;20426;-71
2022/02/12 10:42:28;;;;;;;16.50;8.23;;;9.20;99.90;;;;;;4916181;29;20584;-71
2022/02/12 10:44:54;;;;;;;15.83;7.50;;;9.30;99.90;;;;;;4916118;29;20468;-71
2022/02/12 10:47:20;;;;;;;15.97;7.80;;;9.20;99.90;;;;;;4916113;29;20835;-72
2022/02/12 10:49:48;;;;;;;17.17;7.53;;;9.20;99.90;;;;;;4916221;29;20189;-72
2022/02/12 10:52:14;;;;;;;13.93;8.40;;;9.40;99.90;;;;;;4915626;29;20463;-72
2022/02/12 10:54:48;;;;;;;17.73;8.10;;;9.00;99.90;;;;;;4915987;29;20488;-70
2022/02/12 10:57:14;;;;;;;14.10;7.70;;;8.50;99.90;;;;;;4915718;29;20426;-70
2022/02/12 10:59:44;;;;;;;13.87;8.70;;;8.60;99.90;;;;;;4915927;29;20479;-72
2022/02/12 11:02:18;;;;;;;16.83;7.93;;;8.70;99.90;;;;;;4915634;29;20494;-72
2022/02/12 11:04:48;;;;;;;15.30;7.67;;;8.70;99.90;;;;;;4914996;29;20464;-72
2022/02/12 11:07:16;;;;;;;19.33;8.80;;;8.90;99.90;;;;;;4914373;29;20537;-72
2022/02/12 11:09:46;;;;;;;11.83;7.20;;;9.00;99.90;;;;;;4914921;29;20921;-72
2022/02/12 11:12:13;;;;;;;17.27;7.53;;;9.00;99.90;;;;;;4915847;29;21085;-71
2022/02/12 11:14:39;;;;;;;10.50;8.43;;;8.60;99.90;;;;;;4915941;29;20420;-71
2022/02/12 11:17:10;;;;;;;12.10;7.10;;;8.80;99.90;;;;;;4916100;29;20432;-71
2022/02/12 11:19:37;;;;;;;11.57;7.80;;;9.00;99.90;;;;;;4916013;29;20194;-72
2022/02/12 11:22:03;;;;;;;12.63;6.63;;;9.50;99.90;;;;;;4915565;29;20446;-71
2022/02/12 11:24:42;;;;;;;15.80;8.50;;;9.40;99.90;;;;;;4915433;29;20487;-71
2022/02/12 11:27:19;;;;;;;12.47;7.40;;;9.30;99.90;;;;;;4915475;29;20423;-71
2022/02/12 11:29:45;;;;;;;15.60;7.63;;;9.20;99.90;;;;;;4915781;29;20422;-71
2022/02/12 11:32:11;;;;;;;16.17;6.40;;;9.20;99.90;;;;;;4915162;29;20965;-73
2022/02/12 11:35:06;;;;;;;13.07;6.40;;;9.20;99.90;;;;;;4915484;29;20413;-72
2022/02/12 11:37:44;;;;;;;10.73;6.20;;;9.30;99.90;;;;;;4915322;29;20194;-72
2022/02/12 11:40:13;;;;;;;10.97;7.67;;;9.00;99.90;;;;;;4915355;29;20937;-71
2022/02/12 11:42:46;;;;;;;18.47;7.67;;;8.80;99.90;;;;;;4914984;29;20542;-71
2022/02/12 11:45:19;;;;;;;11.17;6.10;;;9.00;99.90;;;;;;4915339;29;20472;-70
2022/02/12 11:48:07;;;;;;;7.87;6.30;;;9.00;99.90;;;;;;4915280;29;20496;-69
2022/02/12 11:50:50;;;;;;;7.50;6.10;;;9.00;99.90;;;;;;4914588;29;20515;-69
2022/02/12 11:53:40;;;;;;;12.37;6.07;;;8.70;99.90;;;;;;4912974;29;20468;-69
2022/02/12 11:56:15;;;;;;;7.60;5.40;;;8.40;99.90;;;;;;4896581;29;21083;-71
2022/02/12 11:58:43;;;;;;;11.90;6.17;;;8.60;99.90;;;;;;4914815;29;20460;-71
2022/02/12 12:01:32;;;;;;;9.40;4.50;;;8.60;99.90;;;;;;4914313;29;20498;-71
2022/02/12 12:04:15;;;;;;;9.60;5.37;;;8.50;99.90;;;;;;4914498;29;20458;-70
2022/02/12 12:06:59;;;;;;;4.40;4.00;;;8.50;99.90;;;;;;4914484;29;20551;-70
2022/02/12 12:09:32;;;;;;;5.03;4.13;;;8.50;99.90;;;;;;4914391;29;20509;-70
2022/02/12 12:12:10;;;;;;;5.30;3.23;;;8.50;99.90;;;;;;4914588;29;20455;-71
2022/02/12 12:14:36;;;;;;;6.47;3.40;;;8.20;99.90;;;;;;4914587;29;20445;-69
2022/02/12 12:17:03;;;;;;;8.20;3.70;;;8.20;99.90;;;;;;4914567;29;20469;-69
2022/02/12 12:19:37;;;;;;;5.73;3.20;;;8.30;99.90;;;;;;4914588;29;20449;-70
2022/02/12 12:22:06;;;;;;;7.10;2.97;;;8.30;99.90;;;;;;4914126;29;20463;-71
2022/02/12 12:24:32;;;;;;;3.73;2.70;;;8.20;99.90;;;;;;4914357;29;20467;-68
2022/02/12 12:26:58;;;;;;;3.70;2.97;;;7.90;99.90;;;;;;4913701;29;20471;-69
2022/02/12 12:32:15;;;;;;;4.40;2.93;;;7.70;99.90;;;;;;4933203;29;20246;-70
2022/02/12 12:35:05;;;;;;;3.63;3.33;;;7.60;99.90;;;;;;4933584;29;20468;-69
2022/02/12 12:37:51;;;;;;;4.60;2.63;;;7.40;99.90;;;;;;4933496;29;20443;-71
2022/02/12 12:40:17;;;;;;;3.93;3.23;;;7.50;99.90;;;;;;4915420;29;20482;-70
2022/02/12 12:42:42;;;;;;;4.27;2.90;;;7.60;99.90;;;;;;4913899;29;20451;-70
2022/02/12 12:45:14;;;;;;;4.20;2.97;;;7.60;99.90;;;;;;4921605;29;20493;-71
2022/02/12 12:47:54;;;;;;;6.10;3.30;;;7.60;99.90;;;;;;4915987;29;20204;-70
2022/02/12 12:50:20;;;;;;;7.57;3.50;;;7.50;99.90;;;;;;4913978;29;20935;-67
2022/02/12 12:52:46;;;;;;;5.07;2.70;;;7.30;99.90;;;;;;4914074;29;20426;-71
2022/02/12 12:55:17;;;;;;;4.07;3.10;;;7.40;99.90;;;;;;4913822;29;20845;-69
2022/02/12 12:57:44;;;;;;;3.70;2.30;;;7.40;99.90;;;;;;4914551;29;20198;-71
2022/02/12 13:00:15;;;;;;;4.67;2.27;;;7.50;99.90;;;;;;4914075;29;20448;-70
2022/02/12 13:02:50;;;;;;;3.53;2.00;;;7.50;99.90;;;;;;4915708;29;20817;-69
2022/02/12 13:05:26;;;;;;;2.70;2.50;;;7.40;99.90;;;;;;4917556;29;20614;-69
2022/02/12 13:07:54;;;;;;;3.00;1.87;;;7.50;99.90;;;;;;4917991;29;20459;-71
2022/02/12 13:10:24;;;;;;;2.47;2.27;;;7.50;99.90;;;;;;4917131;29;20837;-68
2022/02/12 13:12:50;;;;;;;6.33;1.97;;;7.60;99.90;;;;;;4917332;29;20446;-69
2022/02/12 13:15:22;;;;;;;4.90;2.00;;;7.60;99.90;;;;;;4917516;29;20519;-70
2022/02/12 13:17:56;;;;;;;3.53;1.83;;;7.30;99.90;;;;;;4917448;29;20448;-69
2022/02/12 13:20:24;;;;;;;2.73;2.40;;;7.50;99.90;;;;;;4915781;29;20953;-70
2022/02/12 13:22:59;;;;;;;2.67;2.03;;;7.50;99.90;;;;;;4916689;29;20479;-67
2022/02/12 13:25:30;;;;;;;4.63;2.20;;;7.60;99.90;;;;;;4917511;29;20913;-70
2022/02/12 13:27:57;;;;;;;2.50;1.83;;;7.60;99.90;;;;;;4917642;29;20449;-71
2022/02/12 13:30:29;;;;;;;10.00;2.30;;;7.60;99.90;;;;;;4917781;29;20967;-67
2022/02/12 13:32:55;;;;;;;5.50;1.93;;;7.70;99.90;;;;;;4901343;29;20487;-70
2022/02/12 13:35:22;;;;;;;3.07;2.27;;;7.60;99.90;;;;;;4917740;29;20427;-70
2022/02/12 13:37:51;;;;;;;3.70;2.40;;;7.70;99.90;;;;;;4917721;29;20452;-70
2022/02/12 13:40:25;;;;;;;3.17;2.87;;;7.80;99.90;;;;;;4917605;29;20952;-70
2022/02/12 13:42:55;;;;;;;3.67;2.60;;;7.80;99.90;;;;;;4917359;29;20843;-70
2022/02/12 13:45:22;;;;;;;2.23;2.03;;;7.80;99.90;;;;;;4917501;29;20551;-71
2022/02/12 13:47:49;;;;;;;5.10;2.47;;;7.80;99.90;;;;;;4917637;29;20427;-70
2022/02/12 13:50:23;;;;;;;3.20;2.83;;;7.80;99.90;;;;;;4917226;29;20419;-70
2022/02/12 13:52:54;;;;;;;3.07;2.83;;;7.80;99.90;;;;;;4917159;29;21236;-70
2022/02/12 13:55:19;;;;;;;3.13;2.70;;;7.70;99.90;;;;;;4917279;29;21130;-70
2022/02/12 13:57:45;;;;;;;3.50;2.80;;;7.70;99.90;;;;;;4917350;29;20431;-71
2022/02/12 14:00:11;;;;;;;7.77;3.63;;;7.70;99.90;;;;;;4917098;29;20218;-70
2022/02/12 14:02:44;;;;;;;2.63;2.37;;;7.60;99.90;;;;;;4917155;29;20204;-71
2022/02/12 14:05:09;;;;;;;4.20;3.20;;;7.60;99.90;;;;;;4917020;29;20477;-70
2022/02/12 14:07:35;;;;;;;4.40;3.13;;;7.50;99.90;;;;;;4917226;29;20433;-70
2022/02/12 14:10:00;;;;;;;9.30;4.00;;;7.60;99.90;;;;;;4917123;29;20202;-72
2022/02/12 14:12:26;;;;;;;6.63;3.77;;;7.70;99.90;;;;;;4916954;29;20233;-70
2022/02/12 14:14:51;;;;;;;7.40;4.27;;;7.70;99.90;;;;;;4916083;29;20272;-71
2022/02/12 14:17:17;;;;;;;10.03;3.20;;;7.70;99.90;;;;;;4916878;29;20609;-71
2022/02/12 14:19:42;;;;;;;5.07;3.90;;;7.70;99.90;;;;;;4916996;29;20188;-70
2022/02/12 14:22:08;;;;;;;5.13;3.40;;;7.70;99.90;;;;;;4916524;29;20210;-70
2022/02/12 14:24:34;;;;;;;4.50;2.80;;;7.60;99.90;;;;;;4916737;29;20241;-71
2022/02/12 14:26:59;;;;;;;5.27;3.30;;;7.60;99.90;;;;;;4916792;29;20638;-70
2022/02/12 14:29:25;;;;;;;7.43;3.90;;;7.60;99.90;;;;;;4916617;29;20192;-70
2022/02/12 14:31:50;;;;;;;7.37;3.83;;;7.50;99.90;;;;;;4916468;29;20213;-70
2022/02/12 14:34:17;;;;;;;7.60;3.90;;;7.70;99.90;;;;;;4916501;29;20244;-71
2022/02/12 14:36:43;;;;;;;5.70;3.30;;;7.60;99.90;;;;;;4916714;29;20184;-70
2022/02/12 14:39:09;;;;;;;5.90;4.00;;;7.60;99.90;;;;;;4916516;29;20484;-70
2022/02/12 14:41:37;;;;;;;3.97;3.20;;;7.60;99.90;;;;;;4916302;29;20470;-70
2022/02/12 14:44:03;;;;;;;5.20;3.70;;;7.70;99.90;;;;;;4916323;29;20178;-71
2022/02/12 14:46:29;;;;;;;6.40;4.70;;;7.60;99.90;;;;;;4916426;29;20481;-70
2022/02/12 14:48:55;;;;;;;8.03;3.57;;;7.50;99.90;;;;;;4916447;29;20416;-70
2022/02/12 14:51:21;;;;;;;5.30;3.73;;;7.40;99.90;;;;;;4916096;29;20429;-70
2022/02/12 14:53:46;;;;;;;3.97;3.53;;;7.40;99.90;;;;;;4916206;29;20636;-69
2022/02/12 14:56:12;;;;;;;5.20;3.80;;;7.30;99.90;;;;;;4916218;29;20215;-70
2022/02/12 14:58:38;;;;;;;8.27;4.20;;;7.30;99.90;;;;;;4916237;29;20175;-70
2022/02/12 15:01:03;;;;;;;5.13;4.00;;;7.20;99.90;;;;;;4916220;29;20201;-71
2022/02/12 15:03:29;;;;;;;4.30;3.90;;;7.10;99.90;;;;;;4915736;29;20181;-71
2022/02/12 15:05:54;;;;;;;6.03;4.20;;;7.00;99.90;;;;;;4916351;29;20674;-70
2022/02/12 15:08:20;;;;;;;7.73;4.40;;;7.00;99.90;;;;;;4915895;29;20182;-71
2022/02/12 15:10:45;;;;;;;7.63;5.10;;;7.00;99.90;;;;;;4916015;29;20785;-70
2022/02/12 15:13:11;;;;;;;11.90;6.00;;;7.00;99.90;;;;;;4915664;29;20173;-70
2022/02/12 15:15:37;;;;;;;11.23;4.87;;;7.00;99.90;;;;;;4915898;29;20193;-70
2022/02/12 15:18:02;;;;;;;5.00;4.03;;;6.90;99.90;;;;;;4915902;29;20261;-70
2022/02/12 15:20:28;;;;;;;7.00;5.07;;;6.90;99.90;;;;;;4915692;29;20263;-69
2022/02/12 15:22:53;;;;;;;7.10;4.60;;;6.90;99.90;;;;;;4915689;29;20228;-70
2022/02/12 15:25:20;;;;;;;7.77;4.70;;;6.90;99.90;;;;;;4915562;29;20209;-72
2022/02/12 15:27:45;;;;;;;8.93;5.47;;;6.80;99.90;;;;;;4915883;29;20648;-71
2022/02/12 15:30:11;;;;;;;7.47;4.60;;;6.80;99.90;;;;;;4915459;29;20464;-70
2022/02/12 15:32:37;;;;;;;6.57;4.20;;;6.80;99.90;;;;;;4915557;29;20213;-71
2022/02/12 15:35:03;;;;;;;9.43;5.40;;;6.80;99.90;;;;;;4915498;29;20433;-70
2022/02/12 15:37:29;;;;;;;15.30;4.90;;;6.80;99.90;;;;;;4915526;29;20176;-71
2022/02/12 15:39:55;;;;;;;8.20;5.20;;;6.80;99.90;;;;;;4915596;29;20461;-71
2022/02/12 15:42:20;;;;;;;9.20;4.73;;;6.70;99.90;;;;;;4915392;29;20490;-70
2022/02/12 15:44:46;;;;;;;13.93;5.47;;;6.70;99.90;;;;;;4915413;29;20222;-70
2022/02/12 15:47:12;;;;;;;7.63;4.30;;;6.70;99.90;;;;;;4898312;29;20187;-70
2022/02/12 15:49:39;;;;;;;8.13;5.20;;;6.60;99.90;;;;;;4915485;29;20169;-71
2022/02/12 15:52:06;;;;;;;11.23;6.50;;;6.60;99.90;;;;;;4915139;29;20195;-71
2022/02/12 15:54:32;;;;;;;9.47;5.87;;;6.60;99.90;;;;;;4915252;29;20455;-70
2022/02/12 15:56:59;;;;;;;10.10;6.33;;;6.60;99.90;;;;;;4915384;29;20416;-70
2022/02/12 15:59:25;;;;;;;11.30;5.83;;;6.60;99.90;;;;;;4915279;29;20420;-71
2022/02/12 16:01:50;;;;;;;8.97;5.50;;;6.60;99.90;;;;;;4915089;29;20947;-70
2022/02/12 16:04:16;;;;;;;11.93;6.00;;;6.50;99.90;;;;;;4914997;29;20180;-69
2022/02/12 16:06:42;;;;;;;10.33;4.97;;;6.50;99.90;;;;;;4915382;29;20171;-70
2022/02/12 16:09:07;;;;;;;12.50;6.60;;;6.40;99.90;;;;;;4915227;29;20178;-69
2022/02/12 16:11:33;;;;;;;10.50;5.93;;;6.40;99.90;;;;;;4915088;29;20435;-70
2022/02/12 16:13:58;;;;;;;10.70;6.10;;;6.40;99.90;;;;;;4915003;29;20183;-70
2022/02/12 16:16:24;;;;;;;10.00;5.97;;;6.40;99.90;;;;;;4915009;29;20189;-71
2022/02/12 16:18:50;;;;;;;7.33;5.30;;;6.30;99.90;;;;;;4915337;29;20668;-70
2022/02/12 16:21:16;;;;;;;5.93;5.20;;;6.30;99.90;;;;;;4914849;29;20218;-70
2022/02/12 16:23:42;;;;;;;10.10;5.30;;;6.30;99.90;;;;;;4914855;29;20181;-70
2022/02/12 16:26:07;;;;;;;15.73;7.17;;;6.30;99.90;;;;;;4914952;29;20460;-70
2022/02/12 16:28:33;;;;;;;10.40;6.03;;;6.20;99.90;;;;;;4914944;29;20422;-71
2022/02/12 16:30:59;;;;;;;9.13;5.87;;;6.10;99.90;;;;;;4914801;29;20206;-72
2022/02/12 16:33:30;;;;;;;12.00;5.40;;;6.10;99.90;;;;;;4914504;29;20509;-70
2022/02/12 16:35:56;;;;;;;12.43;7.77;;;6.10;99.90;;;;;;4915086;29;20606;-71
2022/02/12 16:38:22;;;;;;;23.47;11.23;;;6.00;99.90;;;;;;4917174;29;20432;-71
2022/02/12 16:40:47;;;;;;;13.80;8.30;;;5.90;99.90;;;;;;4901751;29;20516;-71
2022/02/12 16:43:13;;;;;;;20.03;8.20;;;5.90;99.90;;;;;;4918345;29;20187;-69
2022/02/12 16:45:40;;;;;;;27.53;13.10;;;5.80;99.90;;;;;;4909277;29;20225;-69
2022/02/12 16:48:05;;;;;;;45.83;21.80;;;5.80;99.90;;;;;;4915806;29;20188;-69
2022/02/12 16:50:31;;;;;;;30.37;12.10;;;5.70;99.90;;;;;;4914260;29;20959;-69
2022/02/12 16:52:56;;;;;;;28.23;12.60;;;5.70;99.90;;;;;;4915752;29;20210;-70
2022/02/12 16:55:25;;;;;;;28.07;13.40;;;5.60;99.90;;;;;;4918176;29;20219;-70
2022/02/12 16:57:50;;;;;;;36.40;17.27;;;5.60;99.90;;;;;;4916673;29;20178;-69
2022/02/12 17:00:16;;;;;;;21.63;12.90;;;5.50;99.90;;;;;;4918105;29;20414;-70
2022/02/12 17:02:44;;;;;;;13.63;6.70;;;5.50;99.90;;;;;;4918285;29;20624;-70
2022/02/12 17:05:12;;;;;;;23.23;13.17;;;5.40;99.90;;;;;;4917683;29;20472;-71
2022/02/12 17:07:39;;;;;;;31.83;15.20;;;5.40;99.90;;;;;;4918229;29;20422;-71
2022/02/12 17:10:05;;;;;;;37.67;17.20;;;5.30;99.90;;;;;;4916015;29;20414;-70
2022/02/12 17:12:31;;;;;;;11.77;6.70;;;5.20;99.90;;;;;;4917834;29;20442;-71
2022/02/12 17:15:00;;;;;;;10.53;5.30;;;5.10;99.90;;;;;;4917992;29;20457;-72
2022/02/12 17:17:25;;;;;;;10.20;4.80;;;4.90;99.90;;;;;;4917846;29;20559;-71
2022/02/12 17:19:51;;;;;;;10.80;5.20;;;4.70;99.90;;;;;;4899869;29;20434;-71
2022/02/12 17:22:16;;;;;;;6.80;4.50;;;4.50;99.90;;;;;;4916264;29;20578;-72
2022/02/12 17:24:42;;;;;;;9.50;4.50;;;4.30;99.90;;;;;;4917720;29;20260;-71